Aeroporto :







RITROVATECI SU...

 
LOGIN :

Iscrizione | Disclaimer

   EN    FR    IT 

 









Sommario :    VFR   VFR Marginale   IFR   IFR Intensivo   IFR Molto Intensivo
Visibilità : 
Base nubi : 
>= 8 km
>= 3000ft
5 / 8 km
1000 / 3000 ft
1500m / 5 km
500 / 1000 ft
800 / 1500m
200 / 500 ft
< 800m
< 200 ft
Simboli :   Temporali  Nebbia  Neve Forte  Precipitazioni Forti  Vento > 20 kt






- Altitudine del aeroporto : 70 ft


KIWI - Wiscasset

ULTIMO METAR :
  • 120545Z AUTO VRB03KT 7SM OVC007 M01/M02 A2998 RMK AO2 UPB09E10B27E31FZRAB10E20B31E39 I1001 T10111022 PNO $

METARs OBSOLETI :
  • 120526Z AUTO 6SM BR OVC006 M01/M02 A2999 RMK AO2 UPB09E10FZRAB10E20 I1000 T10111022 PNO $
  • 120516Z AUTO VRB04KT 6SM -FZRA BR OVC006 M01/M02 A2999 RMK AO2 UPB09E10FZRAB10 I1000 T10111022 PNO $
  • 120453Z AUTO VRB05KT 8SM OVC007 M01/M02 A3000 RMK AO2 SLP157 I1001 T10111022 400501011 PNO $
  • 120353Z AUTO VRB04KT 8SM OVC007 M01/M02 A3005 RMK AO2 FZRAE19 SLP174 I1001 T10111022 PNO $
  • 120325Z AUTO VRB04KT 6SM BR OVC008 M01/M02 A3007 RMK AO2 FZRAE19 I1001 T10111022 PNO $
  • 120253Z AUTO VRB04KT 6SM -FZRA BR OVC009 M01/M02 A3010 RMK AO2 UPB0158E02FZRAE0155B02 SLP192 6//// I1002 I3010 T10061022 56028 PNO $

TAF N/A



MetMap, La meteo Aeronautica in un colpo d'occhio ! - Copyright ORBIFLY Dicembre 2007 - Disclaimer

ORBIFLY MET'MAP TEAM :

Programmazione e sviluppo : Alexandra Zaïnal
Concezione e sviluppo : Baudouin d'Aumeries
Co-Programmazione e sviluppo : Marc-Olivier Méhu
Supporto tecnico e logistico : Manuel Goepfert
Aiuto per la traduzione : Arnaldo La Scala

Contatto : metmap@orbifly.com




FONTI E CREDITI :

   NOAA